createdAt,value
2016-07-04T00:00:59.528Z,0
2016-07-04T00:01:59.526Z,0
2016-07-04T00:02:59.573Z,0
2016-07-04T00:03:59.592Z,0
2016-07-04T00:04:59.627Z,0
2016-07-04T00:05:59.638Z,0
2016-07-04T00:06:59.672Z,0
2016-07-04T00:07:59.690Z,0
2016-07-04T00:08:59.720Z,0
2016-07-04T00:09:59.748Z,0
2016-07-04T00:10:59.759Z,0
2016-07-04T00:11:59.817Z,0
2016-07-04T00:12:59.819Z,0
2016-07-04T00:13:59.851Z,0
2016-07-04T00:14:59.875Z,0
2016-07-04T00:15:59.916Z,0
2016-07-04T00:16:59.935Z,0
2016-07-04T00:17:59.956Z,0
2016-07-04T00:19:00.600Z,0
2016-07-04T00:20:00.001Z,0
2016-07-04T00:21:00.735Z,0
2016-07-04T00:22:00.048Z,0
2016-07-04T00:23:00.067Z,0
2016-07-04T00:24:00.084Z,0
2016-07-04T00:25:00.110Z,0
2016-07-04T00:26:00.133Z,0
2016-07-04T00:27:00.159Z,0
2016-07-04T00:28:00.185Z,0
2016-07-04T00:29:00.206Z,0
2016-07-04T00:30:00.392Z,0
2016-07-04T00:31:00.270Z,0
2016-07-04T00:32:00.401Z,0
2016-07-04T00:33:00.410Z,0
2016-07-04T00:34:00.442Z,0
2016-07-04T00:35:00.455Z,0
2016-07-04T00:36:00.467Z,0
2016-07-04T00:37:00.460Z,0
2016-07-04T00:38:00.469Z,0
2016-07-04T00:39:00.538Z,0
2016-07-04T00:40:00.546Z,0
2016-07-04T00:41:00.545Z,0
2016-07-04T00:42:00.558Z,0
2016-07-04T00:43:00.623Z,0
2016-07-04T00:44:00.673Z,0
2016-07-04T00:45:00.686Z,0
2016-07-04T00:46:00.654Z,0
2016-07-04T00:47:00.672Z,0
2016-07-04T00:48:00.699Z,0
2016-07-04T00:49:00.720Z,0
2016-07-04T00:50:00.740Z,0
2016-07-04T00:51:00.768Z,0
2016-07-04T00:52:00.977Z,0
2016-07-04T00:53:00.976Z,0
2016-07-04T00:54:00.951Z,0
2016-07-04T00:55:00.965Z,0
2016-07-04T00:56:00.893Z,0
2016-07-04T00:57:00.917Z,0
2016-07-04T00:58:00.950Z,0
2016-07-04T00:59:00.960Z,0
2016-07-04T01:00:01.018Z,0
2016-07-04T01:01:01.097Z,0
2016-07-04T01:02:01.034Z,0
2016-07-04T01:03:01.059Z,0
2016-07-04T01:04:01.092Z,0
2016-07-04T01:05:01.111Z,0
2016-07-04T01:06:01.421Z,0
2016-07-04T01:07:01.353Z,0
2016-07-04T01:08:01.555Z,0
2016-07-04T01:09:01.201Z,0
2016-07-04T01:10:01.571Z,0
2016-07-04T01:11:01.317Z,0
2016-07-04T01:12:01.624Z,0
2016-07-04T01:13:01.298Z,0
2016-07-04T01:14:01.339Z,0
2016-07-04T01:15:01.355Z,0
2016-07-04T01:16:02.049Z,0
2016-07-04T01:17:01.399Z,0
2016-07-04T01:18:01.422Z,0
2016-07-04T01:19:01.438Z,0
2016-07-04T01:20:01.565Z,0
2016-07-04T01:21:01.591Z,0
2016-07-04T01:22:01.749Z,0
2016-07-04T01:23:01.614Z,0
2016-07-04T01:24:01.771Z,0
2016-07-04T01:25:01.776Z,0
2016-07-04T01:26:01.787Z,0
2016-07-04T01:27:01.799Z,0
2016-07-04T01:28:01.806Z,0
2016-07-04T01:29:01.817Z,0
2016-07-04T01:30:01.825Z,0
2016-07-04T01:31:02.362Z,0
2016-07-04T01:32:01.869Z,0
2016-07-04T01:33:01.885Z,0
2016-07-04T01:34:01.883Z,0
2016-07-04T01:35:01.888Z,0
2016-07-04T01:36:01.960Z,0
2016-07-04T01:37:01.964Z,0
2016-07-04T01:38:02.012Z,0
2016-07-04T01:39:01.997Z,0
2016-07-04T01:40:02.007Z,0
2016-07-04T01:41:02.010Z,0
2016-07-04T01:42:02.030Z,0
2016-07-04T01:43:02.029Z,0
2016-07-04T01:44:02.047Z,0
2016-07-04T01:45:02.082Z,0
2016-07-04T01:46:02.114Z,0
2016-07-04T01:47:02.123Z,0
2016-07-04T01:48:02.160Z,0
2016-07-04T01:49:02.175Z,0
2016-07-04T01:50:02.210Z,0
2016-07-04T01:51:02.842Z,0
2016-07-04T01:52:02.240Z,0
2016-07-04T01:53:02.270Z,0
2016-07-04T01:54:02.290Z,0
2016-07-04T01:55:02.320Z,0
2016-07-04T01:56:02.338Z,0
2016-07-04T01:57:02.360Z,0
2016-07-04T01:58:02.389Z,0
2016-07-04T01:59:02.415Z,0
2016-07-04T02:00:02.452Z,0
2016-07-04T02:01:02.456Z,0
2016-07-04T02:02:02.490Z,0
2016-07-04T02:03:02.510Z,0
2016-07-04T02:04:02.546Z,0
2016-07-04T02:05:02.629Z,0
2016-07-04T02:06:02.645Z,0
2016-07-04T02:07:02.785Z,0
2016-07-04T02:08:02.824Z,0
2016-07-04T02:09:02.932Z,0
2016-07-04T02:10:02.908Z,0
2016-07-04T02:11:02.857Z,0
2016-07-04T02:12:02.823Z,0
2016-07-04T02:13:03.004Z,0
2016-07-04T02:14:02.872Z,0
2016-07-04T02:15:02.878Z,0
2016-07-04T02:16:03.194Z,0
2016-07-04T02:17:03.041Z,0
2016-07-04T02:18:02.980Z,0
2016-07-04T02:19:03.506Z,0
2016-07-04T02:20:02.938Z,0
2016-07-04T02:21:02.948Z,0
2016-07-04T02:22:02.980Z,0
2016-07-04T02:23:03.198Z,0
2016-07-04T02:24:03.020Z,0
2016-07-04T02:25:03.045Z,0
2016-07-04T02:26:03.079Z,0
2016-07-04T02:27:03.092Z,0
2016-07-04T02:28:03.123Z,0
2016-07-04T02:29:03.137Z,0
2016-07-04T02:30:03.187Z,0
2016-07-04T02:31:03.188Z,0
2016-07-04T02:32:03.226Z,0
2016-07-04T02:33:03.236Z,0
2016-07-04T02:34:03.259Z,0
2016-07-04T02:35:03.283Z,0
2016-07-04T02:36:03.926Z,4
2016-07-04T02:37:03.335Z,4
2016-07-04T02:38:03.367Z,4
2016-07-04T02:39:03.387Z,0
2016-07-04T02:40:03.414Z,4
2016-07-04T02:41:03.420Z,4
2016-07-04T02:42:03.436Z,4
2016-07-04T02:43:03.475Z,4
2016-07-04T02:44:03.504Z,4
2016-07-04T02:45:03.527Z,4
2016-07-04T02:46:03.539Z,8
2016-07-04T02:47:03.565Z,4
2016-07-04T02:48:03.585Z,8
2016-07-04T02:49:03.613Z,8
2016-07-04T02:50:03.638Z,8
2016-07-04T02:51:03.672Z,8
2016-07-04T02:52:03.715Z,8
2016-07-04T02:53:03.716Z,12
2016-07-04T02:54:03.737Z,12
2016-07-04T02:55:03.761Z,12
2016-07-04T02:56:03.788Z,16
2016-07-04T02:57:03.811Z,16
2016-07-04T02:58:03.835Z,20
2016-07-04T02:59:03.836Z,16
2016-07-04T03:00:03.885Z,16
2016-07-04T03:01:03.899Z,20
2016-07-04T03:02:03.917Z,20
2016-07-04T03:03:03.968Z,20
2016-07-04T03:04:03.975Z,28
2016-07-04T03:05:04.001Z,28
2016-07-04T03:06:04.015Z,28
2016-07-04T03:07:04.049Z,32
2016-07-04T03:08:04.063Z,32
2016-07-04T03:09:04.085Z,36
2016-07-04T03:10:04.118Z,36
2016-07-04T03:11:04.140Z,40
2016-07-04T03:12:04.166Z,40
2016-07-04T03:13:04.180Z,44
2016-07-04T03:14:04.201Z,48
2016-07-04T03:15:04.225Z,52
2016-07-04T03:16:04.259Z,52
2016-07-04T03:17:04.296Z,56
2016-07-04T03:18:04.312Z,56
2016-07-04T03:19:04.320Z,60
2016-07-04T03:20:04.341Z,60
2016-07-04T03:21:04.363Z,64
2016-07-04T03:22:04.399Z,68
2016-07-04T03:23:04.408Z,72
2016-07-04T03:24:04.440Z,76
2016-07-04T03:25:04.457Z,76
2016-07-04T03:26:04.488Z,80
2016-07-04T03:27:04.513Z,84
2016-07-04T03:28:04.543Z,84
2016-07-04T03:29:04.554Z,84
2016-07-04T03:30:04.595Z,88
2016-07-04T03:31:04.610Z,96
2016-07-04T03:32:04.634Z,100
2016-07-04T03:33:04.653Z,100
2016-07-04T03:34:05.291Z,104
2016-07-04T03:35:04.696Z,108
2016-07-04T03:36:04.722Z,112
2016-07-04T03:37:04.804Z,124
2016-07-04T03:38:04.766Z,136
2016-07-04T03:39:04.798Z,144
2016-07-04T03:40:04.815Z,152
2016-07-04T03:41:04.840Z,156
2016-07-04T03:42:04.865Z,164
2016-07-04T03:43:04.886Z,164
2016-07-04T03:44:04.921Z,172
2016-07-04T03:45:05.034Z,176
2016-07-04T03:46:05.564Z,176
2016-07-04T03:47:04.981Z,180
2016-07-04T03:48:05.010Z,176
2016-07-04T03:49:05.022Z,176
2016-07-04T03:50:05.053Z,168
2016-07-04T03:51:05.078Z,168
2016-07-04T03:52:05.114Z,172
2016-07-04T03:53:05.122Z,176
2016-07-04T03:54:05.210Z,184
2016-07-04T03:55:05.171Z,184
2016-07-04T03:56:05.192Z,196
2016-07-04T03:57:05.211Z,208
2016-07-04T03:58:05.249Z,216
2016-07-04T03:59:05.265Z,220
2016-07-04T04:00:05.289Z,232
2016-07-04T04:01:05.321Z,236
2016-07-04T04:02:05.325Z,244
2016-07-04T04:03:05.977Z,252
2016-07-04T04:04:05.376Z,256
2016-07-04T04:05:05.405Z,260
2016-07-04T04:06:05.435Z,252
2016-07-04T04:07:05.540Z,252
2016-07-04T04:08:05.549Z,244
2016-07-04T04:09:05.556Z,240
2016-07-04T04:10:05.706Z,244
2016-07-04T04:11:05.702Z,260
2016-07-04T04:12:05.711Z,264
2016-07-04T04:13:05.709Z,248
2016-07-04T04:14:05.717Z,248
2016-07-04T04:15:05.823Z,256
2016-07-04T04:16:05.734Z,256
2016-07-04T04:17:05.871Z,252
2016-07-04T04:18:05.892Z,256
2016-07-04T04:19:05.892Z,268
2016-07-04T04:20:05.916Z,276
2016-07-04T04:21:05.905Z,272
2016-07-04T04:22:05.917Z,280
2016-07-04T04:23:05.918Z,280
2016-07-04T04:24:05.915Z,280
2016-07-04T04:25:05.919Z,284
2016-07-04T04:26:05.942Z,288
2016-07-04T04:27:05.935Z,296
2016-07-04T04:28:05.951Z,292
2016-07-04T04:29:05.977Z,288
2016-07-04T04:30:06.453Z,288
2016-07-04T04:31:06.014Z,284
2016-07-04T04:32:06.650Z,284
2016-07-04T04:33:06.063Z,292
2016-07-04T04:34:06.721Z,284
2016-07-04T04:35:06.123Z,276
2016-07-04T04:36:06.137Z,288
2016-07-04T04:37:06.164Z,300
2016-07-04T04:38:06.179Z,324
2016-07-04T04:39:06.199Z,360
2016-07-04T04:40:06.235Z,380
2016-07-04T04:41:06.248Z,384
2016-07-04T04:42:06.322Z,388
2016-07-04T04:43:06.303Z,384
2016-07-04T04:44:06.311Z,364
2016-07-04T04:45:06.341Z,348
2016-07-04T04:46:06.370Z,344
2016-07-04T04:47:06.386Z,360
2016-07-04T04:48:06.426Z,384
2016-07-04T04:49:06.449Z,420
2016-07-04T04:50:06.470Z,452
2016-07-04T04:51:06.479Z,472
2016-07-04T04:52:06.512Z,468
2016-07-04T04:53:07.193Z,472
2016-07-04T04:54:06.562Z,468
2016-07-04T04:55:06.582Z,456
2016-07-04T04:56:06.616Z,424
2016-07-04T04:57:06.623Z,396
2016-07-04T04:58:06.653Z,396
2016-07-04T04:59:06.686Z,420
2016-07-04T05:00:06.702Z,468
2016-07-04T05:01:06.711Z,520
2016-07-04T05:02:06.750Z,548
2016-07-04T05:03:06.770Z,556
2016-07-04T05:04:06.816Z,540
2016-07-04T05:05:06.811Z,520
2016-07-04T05:06:06.843Z,496
2016-07-04T05:07:06.865Z,512
2016-07-04T05:08:06.897Z,524
2016-07-04T05:09:06.909Z,532
2016-07-04T05:10:06.938Z,524
2016-07-04T05:11:06.958Z,512
2016-07-04T05:12:06.988Z,480
2016-07-04T05:13:07.005Z,440
2016-07-04T05:14:07.647Z,412
2016-07-04T05:15:07.051Z,432
2016-07-04T05:16:07.104Z,428
2016-07-04T05:17:07.095Z,444
2016-07-04T05:18:07.126Z,468
2016-07-04T05:19:07.145Z,476
2016-07-04T05:20:07.178Z,448
2016-07-04T05:21:07.193Z,392
2016-07-04T05:22:07.213Z,364
2016-07-04T05:23:07.231Z,352
2016-07-04T05:24:07.269Z,332
2016-07-04T05:25:07.289Z,328
2016-07-04T05:26:07.917Z,332
2016-07-04T05:27:07.326Z,336
2016-07-04T05:28:07.352Z,360
2016-07-04T05:29:07.371Z,408
2016-07-04T05:30:07.620Z,444
2016-07-04T05:31:07.427Z,492
2016-07-04T05:32:07.460Z,528
2016-07-04T05:33:08.083Z,468
2016-07-04T05:34:07.499Z,404
2016-07-04T05:35:08.180Z,380
2016-07-04T05:36:09.410Z,396
2016-07-04T05:37:09.067Z,384
2016-07-04T05:38:08.384Z,360
2016-07-04T05:39:09.324Z,360
2016-07-04T05:40:08.258Z,360
2016-07-04T05:41:08.273Z,380
2016-07-04T05:42:07.667Z,404
2016-07-04T05:43:07.741Z,424
2016-07-04T05:44:07.723Z,452
2016-07-04T05:45:08.367Z,500
2016-07-04T05:46:07.775Z,552
2016-07-04T05:47:07.782Z,576
2016-07-04T05:48:07.996Z,524
2016-07-04T05:49:08.513Z,468
2016-07-04T05:50:07.868Z,428
2016-07-04T05:51:08.493Z,408
2016-07-04T05:52:07.910Z,400
2016-07-04T05:53:08.273Z,376
2016-07-04T05:54:08.586Z,392
2016-07-04T05:55:07.994Z,428
2016-07-04T05:56:08.023Z,448
2016-07-04T05:57:08.034Z,444
2016-07-04T05:58:08.055Z,428
2016-07-04T05:59:08.749Z,424
2016-07-04T06:00:08.120Z,432
2016-07-04T06:01:08.148Z,448
2016-07-04T06:02:08.363Z,480
2016-07-04T06:03:08.178Z,500
2016-07-04T06:04:08.198Z,476
2016-07-04T06:05:08.363Z,472
2016-07-04T06:06:08.255Z,480
2016-07-04T06:07:08.272Z,472
2016-07-04T06:08:08.293Z,504
2016-07-04T06:09:08.315Z,572
2016-07-04T06:10:10.397Z,652
2016-07-04T06:11:08.374Z,708
2016-07-04T06:12:08.383Z,768
2016-07-04T06:13:08.398Z,804
2016-07-04T06:14:09.274Z,692
2016-07-04T06:15:08.464Z,572
2016-07-04T06:16:08.514Z,464
2016-07-04T06:17:09.109Z,420
2016-07-04T06:18:08.520Z,396
2016-07-04T06:19:08.545Z,396
2016-07-04T06:20:08.584Z,396
2016-07-04T06:21:08.663Z,408
2016-07-04T06:22:08.634Z,428
2016-07-04T06:23:08.661Z,484
2016-07-04T06:24:08.678Z,576
2016-07-04T06:25:09.447Z,688
2016-07-04T06:26:08.763Z,816
2016-07-04T06:27:08.744Z,908
2016-07-04T06:28:08.773Z,972
2016-07-04T06:29:08.788Z,1028
2016-07-04T06:30:08.825Z,1072
2016-07-04T06:31:08.839Z,1076
2016-07-04T06:32:08.870Z,1020
2016-07-04T06:33:09.500Z,940
2016-07-04T06:34:08.907Z,872
2016-07-04T06:35:08.940Z,796
2016-07-04T06:36:08.962Z,692
2016-07-04T06:37:08.985Z,628
2016-07-04T06:38:09.013Z,648
2016-07-04T06:39:09.654Z,656
2016-07-04T06:40:09.817Z,672
2016-07-04T06:41:09.099Z,664
2016-07-04T06:42:09.104Z,648
2016-07-04T06:43:09.138Z,672
2016-07-04T06:44:09.145Z,708
2016-07-04T06:45:09.197Z,732
2016-07-04T06:46:09.197Z,772
2016-07-04T06:47:09.235Z,812
2016-07-04T06:48:09.348Z,816
2016-07-04T06:49:09.263Z,756
2016-07-04T06:50:09.346Z,668
2016-07-04T06:51:09.328Z,620
2016-07-04T06:52:09.955Z,628
2016-07-04T06:53:09.371Z,668
2016-07-04T06:54:10.982Z,740
2016-07-04T06:55:09.428Z,828
2016-07-04T06:56:09.448Z,928
2016-07-04T06:57:09.474Z,968
2016-07-04T06:58:10.107Z,964
2016-07-04T06:59:09.522Z,984
2016-07-04T07:00:09.540Z,956
2016-07-04T07:01:09.563Z,896
2016-07-04T07:02:09.590Z,792
2016-07-04T07:03:09.631Z,740
2016-07-04T07:04:09.639Z,700
2016-07-04T07:05:09.665Z,724
2016-07-04T07:06:09.690Z,724
2016-07-04T07:07:09.712Z,752
2016-07-04T07:08:09.735Z,756
2016-07-04T07:09:09.764Z,744
2016-07-04T07:10:10.460Z,720
2016-07-04T07:11:09.816Z,720
2016-07-04T07:12:09.834Z,724
2016-07-04T07:13:09.880Z,700
2016-07-04T07:14:10.456Z,664
2016-07-04T07:15:09.952Z,652
2016-07-04T07:16:09.932Z,588
2016-07-04T07:17:09.986Z,568
2016-07-04T07:18:09.977Z,544
2016-07-04T07:19:10.004Z,564
2016-07-04T07:20:10.029Z,616
2016-07-04T07:21:10.060Z,676
2016-07-04T07:22:10.075Z,728
2016-07-04T07:23:10.103Z,740
2016-07-04T07:24:10.139Z,728
2016-07-04T07:25:10.159Z,692
2016-07-04T07:26:10.195Z,640
2016-07-04T07:27:10.207Z,588
2016-07-04T07:28:10.908Z,532
2016-07-04T07:29:10.918Z,508
2016-07-04T07:30:10.278Z,500
2016-07-04T07:31:10.320Z,504
2016-07-04T07:32:11.578Z,532
2016-07-04T07:33:10.380Z,568
2016-07-04T07:34:10.385Z,612
2016-07-04T07:35:10.406Z,596
2016-07-04T07:36:10.435Z,612
2016-07-04T07:37:10.459Z,628
2016-07-04T07:38:10.475Z,700
2016-07-04T07:39:10.553Z,752
2016-07-04T07:40:10.532Z,760
2016-07-04T07:41:10.549Z,780
2016-07-04T07:42:10.616Z,836
2016-07-04T07:43:10.598Z,860
2016-07-04T07:44:11.234Z,816
2016-07-04T07:45:10.667Z,772
2016-07-04T07:46:10.669Z,716
2016-07-04T07:47:10.690Z,768
2016-07-04T07:48:10.723Z,844
2016-07-04T07:49:10.744Z,900
2016-07-04T07:50:10.802Z,972
2016-07-04T07:51:10.790Z,1068
2016-07-04T07:52:10.875Z,1128
2016-07-04T07:53:10.885Z,1172
2016-07-04T07:54:10.881Z,1116
2016-07-04T07:55:10.894Z,1068
2016-07-04T07:56:11.538Z,1028
2016-07-04T07:57:11.590Z,1000
2016-07-04T07:58:11.080Z,1000
2016-07-04T07:59:11.615Z,960
2016-07-04T08:00:11.084Z,892
2016-07-04T08:01:11.096Z,792
2016-07-04T08:02:11.103Z,680
2016-07-04T08:03:11.249Z,636
2016-07-04T08:04:11.229Z,564
2016-07-04T08:05:11.763Z,520
2016-07-04T08:06:11.170Z,496
2016-07-04T08:07:11.197Z,472
2016-07-04T08:08:11.843Z,512
2016-07-04T08:09:11.250Z,548
2016-07-04T08:10:11.295Z,528
2016-07-04T08:11:11.326Z,600
2016-07-04T08:12:11.330Z,568
2016-07-04T08:13:11.353Z,572
2016-07-04T08:14:11.376Z,572
2016-07-04T08:15:12.035Z,572
2016-07-04T08:16:11.444Z,576
2016-07-04T08:17:11.451Z,576
2016-07-04T08:18:11.493Z,580
2016-07-04T08:19:12.111Z,580
2016-07-04T08:20:12.161Z,596
2016-07-04T08:21:11.619Z,612
2016-07-04T08:22:11.578Z,620
2016-07-04T08:23:11.598Z,624
2016-07-04T08:24:11.628Z,644
2016-07-04T08:25:11.861Z,668
2016-07-04T08:26:12.760Z,736
2016-07-04T08:27:11.702Z,868
2016-07-04T08:28:11.735Z,1072
2016-07-04T08:29:13.009Z,1016
2016-07-04T08:30:12.408Z,732
2016-07-04T08:31:11.792Z,680
2016-07-04T08:32:11.842Z,688
2016-07-04T08:33:12.477Z,704
2016-07-04T08:34:11.892Z,760
2016-07-04T08:35:12.522Z,900
2016-07-04T08:36:11.940Z,1284
2016-07-04T08:37:11.966Z,1780
2016-07-04T08:38:12.008Z,1504
2016-07-04T08:39:12.041Z,1268
2016-07-04T08:40:12.058Z,1040
2016-07-04T08:41:12.076Z,788
2016-07-04T08:42:12.102Z,772
2016-07-04T08:43:12.129Z,856
2016-07-04T08:44:12.140Z,1100
2016-07-04T08:46:07.879Z,1380
2016-07-04T08:46:26.472Z,1096
2016-07-04T08:47:51.784Z,1480
2016-07-04T08:48:18.974Z,1588
2016-07-04T08:49:19.737Z,1640
2016-07-04T08:50:41.719Z,1208
2016-07-04T08:51:46.032Z,1124
2016-07-04T08:52:32.671Z,1272
2016-07-04T08:53:51.202Z,1224
2016-07-04T08:54:19.133Z,1152
2016-07-04T08:55:19.422Z,920
2016-07-04T08:56:34.207Z,896
2016-07-04T08:57:19.233Z,916
2016-07-04T08:58:19.259Z,1196
2016-07-04T08:59:19.308Z,1528
2016-07-04T09:26:02.842Z,1632
2016-07-04T09:27:02.847Z,1352
2016-07-04T09:28:03.002Z,1292
2016-07-04T09:29:03.012Z,1248
2016-07-04T09:30:03.033Z,1356
2016-07-04T09:31:03.029Z,1312
2016-07-04T09:32:03.082Z,1220
2016-07-04T09:33:03.038Z,1312
2016-07-04T09:34:03.085Z,680
2016-07-04T09:35:03.057Z,1192
2016-07-04T09:36:03.201Z,1188
2016-07-04T09:37:03.825Z,1200
2016-07-04T09:38:03.209Z,1208
2016-07-04T09:39:03.195Z,1220
2016-07-04T09:40:03.213Z,1248
2016-07-04T09:41:03.214Z,1284
2016-07-04T09:42:03.239Z,1344
2016-07-04T09:43:03.240Z,1432
2016-07-04T09:44:03.269Z,1540
2016-07-04T09:45:03.256Z,1632
2016-07-04T09:46:03.309Z,1760
2016-07-04T09:47:03.316Z,1892
2016-07-04T09:48:03.371Z,2192
2016-07-04T09:49:03.373Z,2808
2016-07-04T09:50:03.429Z,3336
2016-07-04T09:51:03.455Z,3224
2016-07-04T09:52:03.462Z,2184
2016-07-04T09:53:03.513Z,2088
2016-07-04T09:54:03.522Z,1648
2016-07-04T09:55:03.593Z,1352
2016-07-04T09:56:03.625Z,1060
2016-07-04T09:57:03.627Z,920
2016-07-04T09:58:03.652Z,860
2016-07-04T09:59:03.690Z,892
2016-07-04T10:00:03.706Z,1576
2016-07-04T10:01:04.370Z,1032
2016-07-04T10:02:03.769Z,1096
2016-07-04T10:03:03.831Z,1472
2016-07-04T10:04:03.867Z,1748
2016-07-04T10:05:04.477Z,1600
2016-07-04T10:06:03.883Z,1908
2016-07-04T10:07:03.918Z,1956
2016-07-04T10:08:03.945Z,2024
2016-07-04T10:09:03.978Z,2124
2016-07-04T10:10:04.007Z,2428
2016-07-04T10:11:04.047Z,2580
2016-07-04T10:12:04.091Z,2056
2016-07-04T10:13:04.088Z,2252
2016-07-04T10:14:04.123Z,2652
2016-07-04T10:15:04.144Z,2384
2016-07-04T10:16:04.172Z,2176
2016-07-04T10:17:04.197Z,2032
2016-07-04T10:18:04.224Z,1980
2016-07-04T10:19:04.264Z,1992
2016-07-04T10:20:04.302Z,2000
2016-07-04T10:21:04.309Z,1984
2016-07-04T10:22:04.365Z,1976
2016-07-04T10:23:04.376Z,2004
2016-07-04T10:24:04.407Z,2112
2016-07-04T10:25:05.063Z,2192
2016-07-04T10:26:04.484Z,2240
2016-07-04T10:27:04.499Z,2248
2016-07-04T10:28:04.526Z,2508
2016-07-04T10:29:04.568Z,2792
2016-07-04T10:30:04.596Z,2800
2016-07-04T10:31:04.621Z,3480
2016-07-04T10:32:04.646Z,3692
2016-07-04T10:33:04.687Z,3228
2016-07-04T10:34:04.720Z,3084
2016-07-04T10:35:04.745Z,2756
2016-07-04T10:36:04.804Z,2792
2016-07-04T10:37:05.424Z,3356
2016-07-04T10:38:04.849Z,2184
2016-07-04T10:39:04.876Z,2068
2016-07-04T10:40:04.915Z,1752
2016-07-04T10:41:05.544Z,1796
2016-07-04T10:42:04.952Z,1932
2016-07-04T10:43:04.997Z,1708
2016-07-04T10:44:05.026Z,1540
2016-07-04T10:45:05.059Z,1540
2016-07-04T10:46:05.084Z,1672
2016-07-04T10:47:05.122Z,1900
2016-07-04T10:48:05.151Z,2080
2016-07-04T10:49:05.179Z,2212
2016-07-04T10:50:05.204Z,2372
2016-07-04T10:51:05.243Z,2640
2016-07-04T10:52:05.273Z,2720
2016-07-04T10:53:05.305Z,2592
2016-07-04T10:54:05.332Z,2456
2016-07-04T10:55:05.363Z,2164
2016-07-04T10:56:05.417Z,3304
2016-07-04T10:57:05.434Z,2868
2016-07-04T10:58:05.456Z,2376
2016-07-04T10:59:06.283Z,2748
2016-07-04T11:00:06.261Z,3100
2016-07-04T11:01:05.557Z,4124
2016-07-04T11:02:05.583Z,3256
2016-07-04T11:03:05.609Z,4008
2016-07-04T11:04:05.643Z,2212
2016-07-04T11:05:05.665Z,1680
2016-07-04T11:06:05.701Z,1508
2016-07-04T11:07:05.724Z,1532
2016-07-04T11:08:05.761Z,1668
2016-07-04T11:09:06.499Z,1784
2016-07-04T11:10:05.881Z,1808
2016-07-04T11:11:05.908Z,1772
2016-07-04T11:12:06.092Z,1400
2016-07-04T11:13:06.101Z,1344
2016-07-04T11:14:06.110Z,1444
2016-07-04T11:15:06.726Z,1528
2016-07-04T11:16:06.122Z,1588
2016-07-04T11:17:06.742Z,1524
2016-07-04T11:18:06.193Z,1260
2016-07-04T11:19:06.183Z,936
2016-07-04T11:20:06.801Z,760
2016-07-04T11:21:06.267Z,668
2016-07-04T11:22:06.269Z,656
2016-07-04T11:23:06.302Z,688
2016-07-04T11:24:06.301Z,732
2016-07-04T11:25:06.309Z,752
2016-07-04T11:26:06.438Z,848
2016-07-04T11:27:06.367Z,1012
2016-07-04T11:28:06.398Z,1288
2016-07-04T11:29:06.425Z,1648
2016-07-04T11:30:06.471Z,2104
2016-07-04T11:31:06.496Z,2684
2016-07-04T11:32:06.523Z,2844
2016-07-04T11:33:06.556Z,2888
2016-07-04T11:34:06.579Z,2516
2016-07-04T11:35:06.613Z,2536
2016-07-04T11:36:06.646Z,2756
2016-07-04T11:37:07.296Z,3836
2016-07-04T11:38:06.708Z,3936
2016-07-04T11:39:06.745Z,4084
2016-07-04T11:40:06.786Z,2576
2016-07-04T11:41:06.798Z,3952
2016-07-04T11:42:06.831Z,4452
2016-07-04T11:43:06.868Z,2412
2016-07-04T11:44:06.897Z,2480
2016-07-04T11:45:06.927Z,2416
2016-07-04T11:46:06.958Z,2092
2016-07-04T11:47:06.981Z,3936
2016-07-04T11:48:07.017Z,3676
2016-07-04T11:49:07.070Z,3704
2016-07-04T11:50:07.086Z,3044
2016-07-04T11:51:07.111Z,2736
2016-07-04T11:52:07.139Z,3124
2016-07-04T11:53:07.184Z,5224
2016-07-04T11:54:07.216Z,3268
2016-07-04T11:55:07.243Z,3064
2016-07-04T11:56:07.894Z,2952
2016-07-04T11:57:07.303Z,2728
2016-07-04T11:58:07.342Z,2420
2016-07-04T11:59:07.378Z,2316
2016-07-04T12:00:07.407Z,2080
2016-07-04T12:01:07.444Z,1952
2016-07-04T12:02:07.475Z,1948
2016-07-04T12:03:07.509Z,2064
2016-07-04T12:04:07.529Z,2108
2016-07-04T12:05:08.174Z,2204
2016-07-04T12:06:07.592Z,2400
2016-07-04T12:07:07.623Z,4904
2016-07-04T12:08:07.661Z,3108
2016-07-04T12:09:07.706Z,2916
2016-07-04T12:10:07.729Z,3236
2016-07-04T12:11:07.760Z,3328
2016-07-04T12:12:07.797Z,3592
2016-07-04T12:13:07.823Z,5596
2016-07-04T12:14:07.841Z,3336
2016-07-04T12:15:08.620Z,3440
2016-07-04T12:16:08.030Z,3480
2016-07-04T12:17:08.818Z,3632
2016-07-04T12:18:08.831Z,3740
2016-07-04T12:19:08.820Z,3712
2016-07-04T12:20:08.222Z,3676
2016-07-04T12:21:08.844Z,3616
2016-07-04T12:22:08.299Z,3636
2016-07-04T12:23:08.282Z,3932
2016-07-04T12:24:08.290Z,4588
2016-07-04T12:25:08.300Z,4344
2016-07-04T12:26:08.314Z,4108
2016-07-04T12:27:08.323Z,3628
2016-07-04T12:28:09.010Z,3132
2016-07-04T12:29:08.416Z,2648
2016-07-04T12:30:09.052Z,3816
2016-07-04T12:31:08.438Z,3220
2016-07-04T12:32:08.448Z,3240
2016-07-04T12:33:08.469Z,4416
2016-07-04T12:34:08.504Z,4804
2016-07-04T12:35:08.529Z,5072
2016-07-04T12:36:08.558Z,3120
2016-07-04T12:37:09.208Z,4668
2016-07-04T12:38:08.629Z,3680
2016-07-04T12:39:08.895Z,2856
2016-07-04T12:40:08.691Z,3424
2016-07-04T12:41:08.745Z,3752
2016-07-04T12:42:09.382Z,3336
2016-07-04T12:43:08.789Z,3692
2016-07-04T12:44:08.847Z,3792
2016-07-04T12:45:08.875Z,2972
2016-07-04T12:46:08.960Z,4260
2016-07-04T12:47:09.127Z,2744
2016-07-04T12:48:09.148Z,2744
2016-07-04T12:49:09.156Z,1720
2016-07-04T12:50:09.161Z,4008
2016-07-04T12:51:09.060Z,4352
2016-07-04T12:52:09.098Z,4332
2016-07-04T12:53:09.127Z,4288
2016-07-04T12:54:09.160Z,4236
2016-07-04T12:55:09.199Z,4228
2016-07-04T12:56:09.217Z,4204
2016-07-04T12:57:09.906Z,4248
2016-07-04T12:58:09.294Z,4336
2016-07-04T12:59:09.322Z,4468
2016-07-04T13:00:09.362Z,4616
2016-07-04T13:01:09.394Z,4724
2016-07-04T13:02:09.421Z,4752
2016-07-04T13:03:09.450Z,4676
2016-07-04T13:04:09.490Z,4616
2016-07-04T13:05:09.513Z,1552
2016-07-04T13:06:09.557Z,4384
2016-07-04T13:07:09.602Z,2012
2016-07-04T13:08:09.614Z,2356
2016-07-04T13:09:09.668Z,2800
2016-07-04T13:10:09.685Z,5352
2016-07-04T13:11:10.333Z,5792
2016-07-04T13:12:10.358Z,5236
2016-07-04T13:13:09.786Z,1580
2016-07-04T13:14:09.819Z,2104
2016-07-04T13:15:09.932Z,1792
2016-07-04T13:16:09.951Z,2068
2016-07-04T13:17:09.981Z,2020
2016-07-04T13:18:10.155Z,2200
2016-07-04T13:19:10.180Z,5848
2016-07-04T13:20:10.085Z,6500
2016-07-04T13:21:10.213Z,6352
2016-07-04T13:22:10.240Z,5896
2016-07-04T13:23:10.247Z,5844
2016-07-04T13:24:10.238Z,5664
2016-07-04T13:25:10.255Z,6272
2016-07-04T13:26:10.332Z,6756
2016-07-04T13:27:11.173Z,6860
2016-07-04T13:28:10.366Z,6024
2016-07-04T13:29:10.975Z,6044
2016-07-04T13:30:10.382Z,1896
2016-07-04T13:31:10.406Z,1952
2016-07-04T13:32:11.076Z,2192
2016-07-04T13:33:11.073Z,2256
2016-07-04T13:34:10.496Z,2816
2016-07-04T13:35:10.529Z,6924
2016-07-04T13:36:10.561Z,7096
2016-07-04T13:37:10.587Z,7600
2016-07-04T13:38:11.291Z,5636
2016-07-04T13:39:11.353Z,7652
2016-07-04T13:40:11.357Z,5116
2016-07-04T13:41:10.734Z,4380
2016-07-04T13:42:11.420Z,3000
2016-07-04T13:43:12.051Z,2916
2016-07-04T13:44:11.483Z,2992
2016-07-04T13:45:11.527Z,6812
2016-07-04T13:46:10.909Z,4040
2016-07-04T13:47:10.982Z,7500
2016-07-04T13:48:11.594Z,3808
2016-07-04T13:49:11.005Z,3908
2016-07-04T13:50:11.049Z,4272
2016-07-04T13:51:11.331Z,7268
2016-07-04T13:52:11.111Z,6672
2016-07-04T13:53:11.153Z,3776
2016-07-04T13:54:11.184Z,4968
2016-07-04T13:55:11.890Z,6924
2016-07-04T13:56:11.254Z,2404
2016-07-04T13:57:11.296Z,3536
2016-07-04T13:58:13.016Z,6968
2016-07-04T13:59:11.367Z,6988
2016-07-04T14:00:11.391Z,6656
2016-07-04T14:01:11.427Z,6948
2016-07-04T14:02:12.156Z,6944
2016-07-04T14:03:11.491Z,6936
2016-07-04T14:04:11.528Z,6844
2016-07-04T14:05:11.571Z,6524
2016-07-04T14:06:11.604Z,6316
2016-07-04T14:07:12.255Z,6232
2016-07-04T14:08:12.290Z,6516
2016-07-04T14:09:11.706Z,5344
2016-07-04T14:10:11.734Z,7168
2016-07-04T14:11:11.770Z,7052
2016-07-04T14:12:11.803Z,3012
2016-07-04T14:13:11.854Z,7736
2016-07-04T14:14:11.894Z,3892
2016-07-04T14:15:12.777Z,2724